Auburndale, Wisconsin
Current Conditions -  °F | °C
As of 4:54 PM on Saturday 25 Oct 2014 (Local Time) from KMFI Reporting Station
Clear Clear  
Wind Chill: 59°   Ceiling: Unl
Heat Index: 59°   Visibility: 10mi
Dew Point: 27°   Wind: 16mph
Humidity: 29%   Direction: 290°WNW
Pressure: 29.92"   Gusts: 25mph
Location:  44.63°N, 90.01°W
Report Text: KMFI 252154Z AUTO 29014G22KT 10SM CLR 15/M03 A2992 RMK AO2 PK WND 30028/2112 SLP133 T01501028
Loading
Personal Weather Stations






























Interactive Weather Map
Tropical Storm Tracking
New forecast layout! Learn more

10-Day Weather Forecast

Advertisements
Track Severe Weather on mobile